EHVL  Vlieland Heliport

Add Bookmark

Vlieland, The Netherlands

Status
Operational
Latitude Longitude
53° 17' 47" N 5° 5' 8" E
53.296665 5.085833
Local (DST + 2) UTC (GMT + 1)
Aug 23, 2014 07:30 Aug 23, 2014 05:30
Sunrise-Sunset Local UTC
Begin Civil Twilight 05:54 03:54
Sunrise 06:32 04:32
Sunset 08:51 18:51
End Civil Twilight 09:29 19:29

Current Weather

METAR Observed VFR
EHVL 230525Z AUTO 28012KT 9999 OVC072 14/08 Q1010 BLU Sat, Aug 23, 2014 @ 05:25 UTC
(5 Minutes ago)
Visual Flight Rules
Wind Visibility Clouds Conditions
280° at 12 knots (22 kph) 10 km or more
  • Overcast at 7,200' AGL
  • No significant weather
Temperatures Readings Precipitation
Current Temp 14°C (57°F)
Dewpoint 8°C (46°F)
Humidity 67%
Altimeter 29.82"Hg
Sea Level Pressure 1010mb
Field Elevation 16.4'
None Recorded

Additional weather within a 92.6km radius of EHVL

Map ICAO Location
EHMG 36.5km N (347°)
EHLW 45.6km E (099°)
EHKD 46.1km S (206°)
EHMA 61.5km E (068°)
EHQE 75.4km W (236°)

24 Hour Weather History

Loading
-

24 Hour Weather Graphs

Loading
-

CheckWX.com is intended as a tool to help pilots better visualize weather data. It is not intended as a substitute for an official weather briefing obtained from a Flight Service Station. CheckWX.com does not meet the FAA requirements for an official pre-flight weather briefing. Therefore, it's important that pilots still call and obtain an official FSS pre-flight weather briefing.